createdAt,value
2018-01-11T00:00:53.480Z,1006.7
2018-01-11T00:02:03.344Z,1006.7
2018-01-11T00:03:12.060Z,1006.69
2018-01-11T00:04:21.020Z,1006.7
2018-01-11T00:05:29.729Z,1006.7
2018-01-11T00:06:38.941Z,1006.67
2018-01-11T00:07:48.407Z,1006.63
2018-01-11T00:08:57.349Z,1006.63
2018-01-11T00:10:06.284Z,1006.64
2018-01-11T00:11:16.032Z,1006.64
2018-01-11T00:12:25.240Z,1006.63
2018-01-11T00:13:34.189Z,1006.62
2018-01-11T00:14:43.397Z,1006.63
2018-01-11T00:15:52.082Z,1006.61
2018-01-11T00:17:01.314Z,1006.63
2018-01-11T00:18:10.513Z,1006.61
2018-01-11T00:19:19.220Z,1006.63
2018-01-11T00:20:28.438Z,1006.64
2018-01-11T00:21:37.717Z,1006.58
2018-01-11T00:22:46.388Z,1006.59
2018-01-11T00:23:55.594Z,1006.59
2018-01-11T00:25:04.796Z,1006.57
2018-01-11T00:26:13.480Z,1006.61
2018-01-11T00:27:22.160Z,1006.58
2018-01-11T00:28:31.362Z,1006.58
2018-01-11T00:29:40.684Z,1006.56
2018-01-11T00:30:49.395Z,1006.58
2018-01-11T00:31:58.357Z,1006.59
2018-01-11T00:33:07.299Z,1006.51
2018-01-11T00:34:16.766Z,1006.52
2018-01-11T00:35:26.241Z,1006.51
2018-01-11T00:36:35.977Z,1006.52
2018-01-11T00:37:44.922Z,1006.46
2018-01-11T00:38:54.647Z,1006.51
2018-01-11T00:40:03.344Z,1006.51
2018-01-11T00:41:12.558Z,1006.52
2018-01-11T00:42:21.521Z,1006.51
2018-01-11T00:43:30.205Z,1006.53
2018-01-11T00:44:38.897Z,1006.5
2018-01-11T00:45:47.834Z,1006.49
2018-01-11T00:46:57.552Z,1006.5
2018-01-11T00:48:07.023Z,1006.49
2018-01-11T00:49:16.256Z,1006.48
2018-01-11T00:50:24.915Z,1006.51
2018-01-11T00:51:34.121Z,1006.48
2018-01-11T00:52:43.089Z,1006.52
2018-01-11T00:53:52.035Z,1006.53
2018-01-11T00:55:01.241Z,1006.52
2018-01-11T00:56:10.202Z,1006.53
2018-01-11T00:57:19.144Z,1006.54
2018-01-11T00:58:28.341Z,1006.54
2018-01-11T00:59:37.831Z,1006.55
2018-01-11T01:00:46.793Z,1006.55
2018-01-11T01:01:56.257Z,1006.6
2018-01-11T01:03:05.471Z,1006.61
2018-01-11T01:04:14.668Z,1006.63
2018-01-11T01:05:23.629Z,1006.65
2018-01-11T01:06:32.837Z,1006.66
2018-01-11T01:07:41.776Z,1006.65
2018-01-11T01:08:50.979Z,1006.67
2018-01-11T01:10:00.473Z,1006.66
2018-01-11T01:11:09.718Z,1006.71
2018-01-11T01:12:18.652Z,1006.73
2018-01-11T01:13:28.106Z,1006.71
2018-01-11T01:14:36.789Z,1006.73
2018-01-11T01:15:45.771Z,1006.8
2018-01-11T01:16:55.236Z,1006.8
2018-01-11T01:18:04.693Z,1006.79
2018-01-11T01:19:13.393Z,1006.79
2018-01-11T01:20:22.643Z,1006.81
2018-01-11T01:21:32.156Z,1006.8
2018-01-11T01:22:41.105Z,1006.86
2018-01-11T01:23:49.820Z,1006.84
2018-01-11T01:24:59.033Z,1006.87
2018-01-11T01:26:08.233Z,1006.91
2018-01-11T01:27:17.248Z,1006.86
2018-01-11T01:28:26.970Z,1006.89
2018-01-11T01:29:35.646Z,1006.92
2018-01-11T01:30:44.586Z,1006.96
2018-01-11T01:31:53.791Z,1006.96
2018-01-11T01:33:02.733Z,1006.99
2018-01-11T01:34:11.936Z,1007.02
2018-01-11T01:35:20.888Z,1007.02
2018-01-11T01:36:30.354Z,1007.05
2018-01-11T01:37:39.297Z,1007.04
2018-01-11T01:38:48.522Z,1007.04
2018-01-11T01:39:57.472Z,1007.03
2018-01-11T01:41:06.676Z,1007.07
2018-01-11T01:42:15.635Z,1007.03
2018-01-11T01:43:24.834Z,1007.07
2018-01-11T01:44:34.052Z,1007.05
2018-01-11T01:45:43.287Z,1007.08
2018-01-11T01:46:52.753Z,1007.06
2018-01-11T01:48:02.221Z,1007.13
2018-01-11T01:49:11.432Z,1007.16
2018-01-11T01:50:20.894Z,1007.12
2018-01-11T01:51:29.567Z,1007.12
2018-01-11T01:52:38.247Z,1007.19
2018-01-11T01:53:47.463Z,1007.16
2018-01-11T01:54:56.693Z,1007.15
2018-01-11T01:56:05.637Z,1007.13
2018-01-11T01:57:14.846Z,1007.15
2018-01-11T01:58:24.052Z,1007.17
2018-01-11T01:59:33.271Z,1007.15
2018-01-11T02:00:42.247Z,1007.19
2018-01-11T02:01:50.942Z,1007.15
2018-01-11T02:02:59.973Z,1007.15
2018-01-11T02:04:09.446Z,1007.17
2018-01-11T02:05:18.395Z,1007.2
2018-01-11T02:06:27.616Z,1007.2
2018-01-11T02:07:37.141Z,1007.18
2018-01-11T02:08:46.341Z,1007.22
2018-01-11T02:09:55.041Z,1007.2
2018-01-11T02:11:04.247Z,1007.21
2018-01-11T02:12:12.930Z,1007.18
2018-01-11T02:13:21.602Z,1007.17
2018-01-11T02:14:30.589Z,1007.19
2018-01-11T02:15:39.526Z,1007.18
2018-01-11T02:16:48.778Z,1007.16
2018-01-11T02:17:58.291Z,1007.21
2018-01-11T02:19:07.493Z,1007.23
2018-01-11T02:20:17.285Z,1007.24
2018-01-11T02:21:26.546Z,1007.24
2018-01-11T02:22:35.309Z,1007.23
2018-01-11T02:23:44.246Z,1007.21
2018-01-11T02:24:53.489Z,1007.21
2018-01-11T02:26:03.025Z,1007.22
2018-01-11T02:27:11.704Z,1007.19
2018-01-11T02:28:20.906Z,1007.23
2018-01-11T02:29:30.682Z,1007.19
2018-01-11T02:30:39.883Z,1007.21
2018-01-11T02:31:49.359Z,1007.2
2018-01-11T02:32:58.029Z,1007.25
2018-01-11T02:34:07.228Z,1007.21
2018-01-11T02:35:16.434Z,1007.19
2018-01-11T02:36:25.383Z,1007.22
2018-01-11T02:37:34.072Z,1007.24
2018-01-11T02:38:43.013Z,1007.26
2018-01-11T02:39:52.287Z,1007.26
2018-01-11T02:41:01.498Z,1007.25
2018-01-11T02:42:11.235Z,1007.29
2018-01-11T02:43:20.189Z,1007.31
2018-01-11T02:44:29.153Z,1007.31
2018-01-11T02:45:38.374Z,1007.34
2018-01-11T02:46:47.060Z,1007.31
2018-01-11T02:47:56.279Z,1007.33
2018-01-11T02:49:05.515Z,1007.3
2018-01-11T02:50:14.477Z,1007.35
2018-01-11T02:51:23.161Z,1007.32
2018-01-11T02:52:31.889Z,1007.34
2018-01-11T02:53:40.836Z,1007.32
2018-01-11T02:54:50.036Z,1007.36
2018-01-11T02:55:59.245Z,1007.38
2018-01-11T02:57:08.503Z,1007.36
2018-01-11T02:58:17.729Z,1007.37
2018-01-11T02:59:26.937Z,1007.4
2018-01-11T03:00:36.431Z,1007.41
2018-01-11T03:01:46.008Z,1007.35
2018-01-11T03:02:55.413Z,1007.35
2018-01-11T03:04:04.378Z,1007.39
2018-01-11T03:05:13.066Z,1007.34
2018-01-11T03:06:22.629Z,1007.35
2018-01-11T03:07:31.580Z,1007.4
2018-01-11T03:08:40.528Z,1007.36
2018-01-11T03:09:49.741Z,1007.38
2018-01-11T03:10:58.702Z,1007.38
2018-01-11T03:12:08.197Z,1007.41
2018-01-11T03:13:17.420Z,1007.41
2018-01-11T03:14:26.372Z,1007.41
2018-01-11T03:15:35.856Z,1007.42
2018-01-11T03:16:44.810Z,1007.42
2018-01-11T03:17:54.294Z,1007.44
2018-01-11T03:19:03.774Z,1007.44
2018-01-11T03:20:12.991Z,1007.43
2018-01-11T03:21:22.216Z,1007.47
2018-01-11T03:22:31.169Z,1007.45
2018-01-11T03:23:40.391Z,1007.49
2018-01-11T03:24:49.347Z,1007.5
2018-01-11T03:25:58.571Z,1007.51
2018-01-11T03:27:07.536Z,1007.51
2018-01-11T03:28:17.044Z,1007.51
2018-01-11T03:29:26.017Z,1007.51
2018-01-11T03:30:35.795Z,1007.47
2018-01-11T03:31:45.011Z,1007.47
2018-01-11T03:32:54.509Z,1007.48
2018-01-11T03:34:03.740Z,1007.48
2018-01-11T03:35:13.478Z,1007.51
2018-01-11T03:36:22.462Z,1007.54
2018-01-11T03:37:31.683Z,1007.53
2018-01-11T03:38:40.883Z,1007.53
2018-01-11T03:39:50.341Z,1007.5
2018-01-11T03:40:59.554Z,1007.51
2018-01-11T03:42:08.530Z,1007.53
2018-01-11T03:43:18.015Z,1007.55
2018-01-11T03:44:27.509Z,1007.55
2018-01-11T03:45:36.458Z,1007.54
2018-01-11T03:46:45.680Z,1007.56
2018-01-11T03:47:54.906Z,1007.54
2018-01-11T03:49:04.131Z,1007.59
2018-01-11T03:50:13.344Z,1007.56
2018-01-11T03:51:22.581Z,1007.56
2018-01-11T03:52:31.555Z,1007.56
2018-01-11T03:53:40.241Z,1007.59
2018-01-11T03:54:50.007Z,1007.57
2018-01-11T03:55:59.236Z,1007.59
2018-01-11T03:57:08.706Z,1007.54
2018-01-11T03:58:17.925Z,1007.59
2018-01-11T03:59:26.916Z,1007.58
2018-01-11T04:00:36.154Z,1007.58
2018-01-11T04:01:45.110Z,1007.58
2018-01-11T04:02:54.316Z,1007.56
2018-01-11T04:04:03.529Z,1007.58
2018-01-11T04:05:12.470Z,1007.57
2018-01-11T04:06:21.674Z,1007.59
2018-01-11T04:07:30.975Z,1007.61
2018-01-11T04:08:40.453Z,1007.64
2018-01-11T04:09:49.667Z,1007.61
2018-01-11T04:10:58.887Z,1007.59
2018-01-11T04:12:07.557Z,1007.62
2018-01-11T04:13:16.273Z,1007.6
2018-01-11T04:14:25.481Z,1007.61
2018-01-11T04:15:34.169Z,1007.64
2018-01-11T04:16:43.121Z,1007.63
2018-01-11T04:17:52.324Z,1007.65
2018-01-11T04:19:01.537Z,1007.63
2018-01-11T04:20:11.093Z,1007.66
2018-01-11T04:21:19.799Z,1007.71
2018-01-11T04:22:29.053Z,1007.67
2018-01-11T04:23:38.525Z,1007.7
2018-01-11T04:24:47.226Z,1007.72
2018-01-11T04:25:55.974Z,1007.73
2018-01-11T04:27:05.197Z,1007.73
2018-01-11T04:28:14.739Z,1007.76
2018-01-11T04:29:23.436Z,1007.74
2018-01-11T04:30:32.898Z,1007.75
2018-01-11T04:31:42.146Z,1007.79
2018-01-11T04:32:51.628Z,1007.75
2018-01-11T04:34:01.356Z,1007.79
2018-01-11T04:35:10.301Z,1007.78
2018-01-11T04:36:19.526Z,1007.79
2018-01-11T04:37:28.722Z,1007.78
2018-01-11T04:38:37.706Z,1007.74
2018-01-11T04:39:47.172Z,1007.78
2018-01-11T04:40:56.413Z,1007.75
2018-01-11T04:42:05.607Z,1007.78
2018-01-11T04:43:14.279Z,1007.79
2018-01-11T04:44:23.783Z,1007.8
2018-01-11T04:45:33.277Z,1007.85
2018-01-11T04:46:42.473Z,1007.89
2018-01-11T04:47:51.248Z,1007.85
2018-01-11T04:49:00.452Z,1007.86
2018-01-11T04:50:09.130Z,1007.87
2018-01-11T04:51:18.368Z,1007.91
2018-01-11T04:52:27.564Z,1007.93
2018-01-11T04:53:36.548Z,1007.96
2018-01-11T04:54:46.020Z,1007.92
2018-01-11T04:55:55.499Z,1007.93
2018-01-11T04:57:04.459Z,1007.99
2018-01-11T04:58:13.956Z,1007.99
2018-01-11T04:59:23.174Z,1008.05
2018-01-11T05:00:32.655Z,1008.09
2018-01-11T05:01:41.360Z,1008.1
2018-01-11T05:02:50.606Z,1008.1
2018-01-11T05:03:59.565Z,1008.11
2018-01-11T05:05:09.028Z,1008.1
2018-01-11T05:06:18.271Z,1008.05
2018-01-11T05:07:27.491Z,1008.1
2018-01-11T05:08:37.212Z,1008.12
2018-01-11T05:09:46.418Z,1008.11
2018-01-11T05:10:55.112Z,1008.15
2018-01-11T05:12:03.843Z,1008.16
2018-01-11T05:13:13.047Z,1008.19
2018-01-11T05:14:22.288Z,1008.19
2018-01-11T05:15:31.216Z,1008.17
2018-01-11T05:16:40.424Z,1008.18
2018-01-11T05:17:49.666Z,1008.19
2018-01-11T05:18:58.620Z,1008.2
2018-01-11T05:20:07.848Z,1008.28
2018-01-11T05:21:17.072Z,1008.28
2018-01-11T05:22:25.806Z,1008.3
2018-01-11T05:23:34.778Z,1008.33
2018-01-11T05:24:43.978Z,1008.34
2018-01-11T05:25:52.674Z,1008.34
2018-01-11T05:27:01.614Z,1008.37
2018-01-11T05:28:10.574Z,1008.35
2018-01-11T05:29:19.776Z,1008.38
2018-01-11T05:30:29.517Z,1008.39
2018-01-11T05:31:38.721Z,1008.37
2018-01-11T05:32:47.933Z,1008.4
2018-01-11T05:33:56.895Z,1008.39
2018-01-11T05:35:06.417Z,1008.41
2018-01-11T05:36:15.064Z,1008.43
2018-01-11T05:37:24.287Z,1008.44
2018-01-11T05:38:33.512Z,1008.46
2018-01-11T05:39:43.251Z,1008.5
2018-01-11T05:40:52.193Z,1008.5
2018-01-11T05:42:01.662Z,1008.49
2018-01-11T05:43:11.134Z,1008.47
2018-01-11T05:44:20.605Z,1008.44
2018-01-11T05:45:29.297Z,1008.5
2018-01-11T05:46:38.495Z,1008.49
2018-01-11T05:47:47.994Z,1008.5
2018-01-11T05:48:56.961Z,1008.53
2018-01-11T05:50:06.460Z,1008.54
2018-01-11T05:51:15.211Z,1008.57
2018-01-11T05:52:24.154Z,1008.59
2018-01-11T05:53:33.105Z,1008.59
2018-01-11T05:54:42.325Z,1008.6
2018-01-11T05:55:51.047Z,1008.63
2018-01-11T05:56:59.990Z,1008.6
2018-01-11T05:58:08.955Z,1008.63
2018-01-11T05:59:17.914Z,1008.6
2018-01-11T06:00:27.657Z,1008.59
2018-01-11T06:01:36.870Z,1008.61
2018-01-11T06:02:46.065Z,1008.63
2018-01-11T06:03:55.292Z,1008.65
2018-01-11T06:05:04.481Z,1008.64
2018-01-11T06:06:13.682Z,1008.69
2018-01-11T06:07:22.368Z,1008.7
2018-01-11T06:08:31.610Z,1008.72
2018-01-11T06:09:40.826Z,1008.73
2018-01-11T06:10:49.798Z,1008.72
2018-01-11T06:11:58.753Z,1008.76
2018-01-11T06:13:07.962Z,1008.75
2018-01-11T06:14:17.460Z,1008.79
2018-01-11T06:15:26.449Z,1008.78
2018-01-11T06:16:35.411Z,1008.8
2018-01-11T06:17:44.905Z,1008.82
2018-01-11T06:18:53.851Z,1008.88
2018-01-11T06:20:02.810Z,1008.87
2018-01-11T06:21:11.826Z,1008.86
2018-01-11T06:22:20.774Z,1008.89
2018-01-11T06:23:29.726Z,1008.96
2018-01-11T06:24:38.664Z,1008.95
2018-01-11T06:25:47.600Z,1008.98
2018-01-11T06:26:56.559Z,1008.97
2018-01-11T06:28:06.071Z,1008.98
2018-01-11T06:29:15.309Z,1008.97
2018-01-11T06:30:23.988Z,1008.95
2018-01-11T06:31:32.935Z,1009
2018-01-11T06:32:41.873Z,1009.02
2018-01-11T06:33:51.080Z,1009.02
2018-01-11T06:35:00.562Z,1009.04
2018-01-11T06:36:09.263Z,1009.07
2018-01-11T06:37:18.471Z,1009.1
2018-01-11T06:38:27.979Z,1009.1
2018-01-11T06:39:37.273Z,1009.14
2018-01-11T06:40:46.496Z,1009.12
2018-01-11T06:41:55.977Z,1009.18
2018-01-11T06:43:04.697Z,1009.17
2018-01-11T06:44:13.976Z,1009.16
2018-01-11T06:45:23.183Z,1009.19
2018-01-11T06:46:32.422Z,1009.22
2018-01-11T06:47:41.368Z,1009.22
2018-01-11T06:48:50.570Z,1009.26
2018-01-11T06:49:59.550Z,1009.26
2018-01-11T06:51:08.528Z,1009.28
2018-01-11T06:52:17.234Z,1009.29
2018-01-11T06:53:26.512Z,1009.31
2018-01-11T06:54:35.716Z,1009.34
2018-01-11T06:55:44.671Z,1009.36
2018-01-11T06:56:53.843Z,1009.38
2018-01-11T06:58:03.056Z,1009.39
2018-01-11T06:59:12.534Z,1009.37
2018-01-11T07:00:21.745Z,1009.38
2018-01-11T07:01:31.504Z,1009.39
2018-01-11T07:02:40.442Z,1009.41
2018-01-11T07:03:49.678Z,1009.41
2018-01-11T07:04:59.196Z,1009.42
2018-01-11T07:06:08.673Z,1009.44
2018-01-11T07:07:17.890Z,1009.45
2018-01-11T07:08:27.092Z,1009.47
2018-01-11T07:09:36.328Z,1009.49
2018-01-11T07:10:45.549Z,1009.5
2018-01-11T07:11:54.516Z,1009.5
2018-01-11T07:13:03.493Z,1009.52
2018-01-11T07:14:12.477Z,1009.5
2018-01-11T07:15:21.981Z,1009.55
2018-01-11T07:16:31.489Z,1009.54
2018-01-11T07:17:40.194Z,1009.61
2018-01-11T07:18:49.420Z,1009.61
2018-01-11T07:19:58.903Z,1009.61
2018-01-11T07:21:08.107Z,1009.61
2018-01-11T07:22:17.173Z,1009.61
2018-01-11T07:23:26.396Z,1009.55
2018-01-11T07:24:35.340Z,1009.65
2018-01-11T07:25:44.295Z,1009.66
2018-01-11T07:26:53.506Z,1009.62
2018-01-11T07:28:02.498Z,1009.63
2018-01-11T07:29:11.988Z,1009.67
2018-01-11T07:30:20.729Z,1009.67
2018-01-11T07:31:30.520Z,1009.71
2018-01-11T07:32:39.767Z,1009.71
2018-01-11T07:33:48.768Z,1009.7
2018-01-11T07:34:58.008Z,1009.68
2018-01-11T07:36:07.253Z,1009.7
2018-01-11T07:37:16.468Z,1009.71
2018-01-11T07:38:25.455Z,1009.72
2018-01-11T07:39:34.439Z,1009.76
2018-01-11T07:40:43.490Z,1009.79
2018-01-11T07:41:53.241Z,1009.83
2018-01-11T07:43:02.244Z,1009.83
2018-01-11T07:44:11.971Z,1009.83
2018-01-11T07:45:21.203Z,1009.82
2018-01-11T07:46:30.194Z,1009.87
2018-01-11T07:47:39.413Z,1009.89
2018-01-11T07:48:48.133Z,1009.88
2018-01-11T07:49:57.634Z,1009.9
2018-01-11T07:51:06.384Z,1009.91
2018-01-11T07:52:15.622Z,1009.9
2018-01-11T07:53:24.599Z,1009.94
2018-01-11T07:54:33.573Z,1009.94
2018-01-11T07:55:42.824Z,1010.01
2018-01-11T07:56:51.596Z,1010.02
2018-01-11T07:58:01.092Z,1010.03
2018-01-11T07:59:10.587Z,1010.04
2018-01-11T08:00:19.538Z,1010.05
2018-01-11T08:01:28.229Z,1010.1
2018-01-11T08:02:36.927Z,1010.1
2018-01-11T08:03:46.158Z,1010.1
2018-01-11T08:04:55.650Z,1010.11
2018-01-11T08:06:05.150Z,1010.11
2018-01-11T08:07:13.835Z,1010.15
2018-01-11T08:08:22.528Z,1010.14
2018-01-11T08:09:31.769Z,1010.17
2018-01-11T08:10:40.991Z,1010.19
2018-01-11T08:11:50.020Z,1010.24
2018-01-11T08:12:59.027Z,1010.24
2018-01-11T08:14:07.983Z,1010.26
2018-01-11T08:15:16.939Z,1010.3
2018-01-11T08:16:26.141Z,1010.3
2018-01-11T08:17:35.888Z,1010.33
2018-01-11T08:18:44.862Z,1010.35
2018-01-11T08:19:53.815Z,1010.32
2018-01-11T08:21:02.585Z,1010.39
2018-01-11T08:22:11.884Z,1010.39
2018-01-11T08:23:22.115Z,1010.4
2018-01-11T08:24:31.384Z,1010.43
2018-01-11T08:25:40.357Z,1010.47
2018-01-11T08:26:49.349Z,1010.49
2018-01-11T08:27:58.049Z,1010.48
2018-01-11T08:29:07.018Z,1010.55
2018-01-11T08:30:16.248Z,1010.52
2018-01-11T08:31:24.933Z,1010.54
2018-01-11T08:32:33.933Z,1010.56
2018-01-11T08:33:42.900Z,1010.56
2018-01-11T08:34:51.863Z,1010.61
2018-01-11T08:36:00.810Z,1010.59
2018-01-11T08:37:10.807Z,1010.62
2018-01-11T08:38:19.845Z,1010.63
2018-01-11T08:39:29.056Z,1010.64
2018-01-11T08:40:37.752Z,1010.63
2018-01-11T08:41:46.447Z,1010.63
2018-01-11T08:42:55.419Z,1010.69
2018-01-11T08:44:04.438Z,1010.69
2018-01-11T08:45:13.663Z,1010.75
2018-01-11T08:46:23.133Z,1010.7
2018-01-11T08:47:32.355Z,1010.72
2018-01-11T08:48:41.047Z,1010.76
2018-01-11T08:49:50.268Z,1010.75
2018-01-11T08:50:59.767Z,1010.76
2018-01-11T08:52:08.984Z,1010.79
2018-01-11T08:53:18.213Z,1010.78
2018-01-11T08:54:26.914Z,1010.8
2018-01-11T08:55:36.668Z,1010.81
2018-01-11T08:56:45.607Z,1010.81
2018-01-11T08:57:54.564Z,1010.86
2018-01-11T08:59:03.513Z,1010.81
2018-01-11T09:00:13.020Z,1010.86
2018-01-11T09:01:21.740Z,1010.85
2018-01-11T09:02:31.472Z,1010.85
2018-01-11T09:03:40.697Z,1010.89
2018-01-11T09:04:49.656Z,1010.88
2018-01-11T09:05:58.648Z,1010.91
2018-01-11T09:07:07.857Z,1010.94
2018-01-11T09:08:17.073Z,1010.93
2018-01-11T09:09:26.803Z,1010.97
2018-01-11T09:10:36.012Z,1010.97
2018-01-11T09:11:44.996Z,1011
2018-01-11T09:12:54.204Z,1010.99
2018-01-11T09:14:03.717Z,1011.06
2018-01-11T09:15:12.680Z,1011.06
2018-01-11T09:16:21.372Z,1011.1
2018-01-11T09:17:30.840Z,1011.11
2018-01-11T09:18:39.846Z,1011.16
2018-01-11T09:19:48.811Z,1011.16
2018-01-11T09:20:58.217Z,1011.19
2018-01-11T09:22:07.699Z,1011.22
2018-01-11T09:23:16.932Z,1011.25
2018-01-11T09:24:26.150Z,1011.24
2018-01-11T09:25:35.428Z,1011.26
2018-01-11T09:26:44.411Z,1011.31
2018-01-11T09:27:53.623Z,1011.32
2018-01-11T09:29:02.859Z,1011.29
2018-01-11T09:30:11.823Z,1011.28
2018-01-11T09:31:21.062Z,1011.32
2018-01-11T09:32:30.328Z,1011.32
2018-01-11T09:33:39.283Z,1011.34
2018-01-11T09:34:49.055Z,1011.35
2018-01-11T09:35:58.072Z,1011.35
2018-01-11T09:37:07.290Z,1011.34
2018-01-11T09:38:16.521Z,1011.39
2018-01-11T09:39:25.272Z,1011.37
2018-01-11T09:40:34.006Z,1011.36
2018-01-11T09:41:42.975Z,1011.41
2018-01-11T09:42:52.461Z,1011.42
2018-01-11T09:44:01.468Z,1011.43
2018-01-11T09:45:10.469Z,1011.46
2018-01-11T09:46:19.691Z,1011.44
2018-01-11T09:47:28.651Z,1011.47
2018-01-11T09:48:37.872Z,1011.48
2018-01-11T09:49:46.835Z,1011.48
2018-01-11T09:50:55.787Z,1011.5
2018-01-11T09:52:05.058Z,1011.47
2018-01-11T09:53:14.022Z,1011.46
2018-01-11T09:54:23.038Z,1011.49
2018-01-11T09:55:32.806Z,1011.45
2018-01-11T09:56:41.500Z,1011.48
2018-01-11T09:57:50.735Z,1011.47
2018-01-11T09:58:59.459Z,1011.49
2018-01-11T10:00:08.677Z,1011.52
2018-01-11T10:01:17.654Z,1011.54
2018-01-11T10:02:27.403Z,1011.53
2018-01-11T10:03:36.373Z,1011.56
2018-01-11T10:04:45.338Z,1011.56
2018-01-11T10:05:54.300Z,1011.54
2018-01-11T10:07:03.513Z,1011.52
2018-01-11T10:08:12.995Z,1011.57
2018-01-11T10:09:22.078Z,1011.56
2018-01-11T10:10:31.078Z,1011.56
2018-01-11T10:11:40.059Z,1011.57
2018-01-11T10:12:49.010Z,1011.61
2018-01-11T10:13:58.234Z,1011.58
2018-01-11T10:15:07.184Z,1011.6
2018-01-11T10:16:16.147Z,1011.59
2018-01-11T10:17:24.837Z,1011.63
2018-01-11T10:18:34.094Z,1011.63
2018-01-11T10:19:43.046Z,1011.61
2018-01-11T10:20:51.797Z,1011.65
2018-01-11T10:22:00.779Z,1011.61
2018-01-11T10:23:09.813Z,1011.63
2018-01-11T10:24:18.785Z,1011.65
2018-01-11T10:25:27.486Z,1011.66
2018-01-11T10:26:37.232Z,1011.64
2018-01-11T10:27:46.489Z,1011.66
2018-01-11T10:28:56.225Z,1011.71
2018-01-11T10:30:05.437Z,1011.71
2018-01-11T10:31:14.933Z,1011.71
2018-01-11T10:32:23.906Z,1011.72
2018-01-11T10:33:33.642Z,1011.71
2018-01-11T10:34:42.617Z,1011.75
2018-01-11T10:35:51.858Z,1011.75
2018-01-11T10:37:00.887Z,1011.74
2018-01-11T10:38:09.900Z,1011.77
2018-01-11T10:39:18.856Z,1011.78
2018-01-11T10:40:27.809Z,1011.79
2018-01-11T10:41:36.764Z,1011.81
2018-01-11T10:42:45.988Z,1011.75
2018-01-11T10:43:54.677Z,1011.75
2018-01-11T10:45:03.898Z,1011.76
2018-01-11T10:46:12.852Z,1011.78
2018-01-11T10:47:22.091Z,1011.77
2018-01-11T10:48:31.036Z,1011.81
2018-01-11T10:49:40.049Z,1011.8
2018-01-11T10:50:49.005Z,1011.82
2018-01-11T10:51:58.219Z,1011.78
2018-01-11T10:53:07.450Z,1011.8
2018-01-11T10:54:16.661Z,1011.81
2018-01-11T10:55:25.618Z,1011.75
2018-01-11T10:56:34.844Z,1011.79
2018-01-11T10:57:44.095Z,1011.81
2018-01-11T10:58:52.777Z,1011.79
2018-01-11T11:00:02.584Z,1011.82
2018-01-11T11:01:12.070Z,1011.83
2018-01-11T11:02:21.300Z,1011.8
2018-01-11T11:03:30.529Z,1011.83
2018-01-11T11:04:40.015Z,1011.82
2018-01-11T11:05:49.227Z,1011.82
2018-01-11T11:06:58.437Z,1011.83
2018-01-11T11:08:07.660Z,1011.8
2018-01-11T11:09:16.360Z,1011.79
2018-01-11T11:10:25.332Z,1011.77
2018-01-11T11:11:34.540Z,1011.81
2018-01-11T11:12:43.756Z,1011.79
2018-01-11T11:13:52.728Z,1011.79
2018-01-11T11:15:01.710Z,1011.78
2018-01-11T11:16:10.707Z,1011.78
2018-01-11T11:17:19.927Z,1011.82
2018-01-11T11:18:29.663Z,1011.86
2018-01-11T11:19:38.871Z,1011.78
2018-01-11T11:20:48.868Z,1011.83
2018-01-11T11:21:58.092Z,1011.85
2018-01-11T11:23:07.322Z,1011.77
2018-01-11T11:24:17.051Z,1011.82
2018-01-11T11:25:26.270Z,1011.79
2018-01-11T11:26:35.749Z,1011.8
2018-01-11T11:27:44.965Z,1011.82
2018-01-11T11:28:54.200Z,1011.78
2018-01-11T11:30:03.425Z,1011.77
2018-01-11T11:31:12.650Z,1011.79
2018-01-11T11:32:22.240Z,1011.79
2018-01-11T11:33:30.946Z,1011.81
2018-01-11T11:34:40.436Z,1011.73
2018-01-11T11:35:49.419Z,1011.77
2018-01-11T11:36:58.949Z,1011.75
2018-01-11T11:38:07.911Z,1011.75
2018-01-11T11:39:16.858Z,1011.75
2018-01-11T11:40:25.811Z,1011.76
2018-01-11T11:41:35.105Z,1011.75
2018-01-11T11:42:44.052Z,1011.76
2018-01-11T11:43:53.537Z,1011.74
2018-01-11T11:45:02.759Z,1011.74
2018-01-11T11:46:12.517Z,1011.71
2018-01-11T11:47:22.018Z,1011.73
2018-01-11T11:48:30.974Z,1011.69
2018-01-11T11:49:40.447Z,1011.73
2018-01-11T11:50:49.420Z,1011.73
2018-01-11T11:51:58.895Z,1011.74
2018-01-11T11:53:08.103Z,1011.77
2018-01-11T11:54:17.327Z,1011.78
2018-01-11T11:55:26.321Z,1011.78
2018-01-11T11:56:35.275Z,1011.78
2018-01-11T11:57:44.823Z,1011.79
2018-01-11T11:58:54.070Z,1011.8
2018-01-11T12:00:03.032Z,1011.83
2018-01-11T12:01:12.778Z,1011.79
2018-01-11T12:02:21.520Z,1011.84
2018-01-11T12:03:30.489Z,1011.85
2018-01-11T12:04:40.025Z,1011.85
2018-01-11T12:05:49.525Z,1011.85
2018-01-11T12:06:58.469Z,1011.84
2018-01-11T12:08:07.965Z,1011.87
2018-01-11T12:09:16.669Z,1011.85
2018-01-11T12:10:25.619Z,1011.86
2018-01-11T12:11:34.854Z,1011.85
2018-01-11T12:12:44.102Z,1011.85
2018-01-11T12:13:53.059Z,1011.86
2018-01-11T12:15:02.312Z,1011.87
2018-01-11T12:16:12.058Z,1011.85
2018-01-11T12:17:21.560Z,1011.86
2018-01-11T12:18:30.770Z,1011.87
2018-01-11T12:19:40.009Z,1011.87
2018-01-11T12:20:49.518Z,1011.82
2018-01-11T12:21:59.300Z,1011.83
2018-01-11T12:23:08.510Z,1011.81
2018-01-11T12:24:17.985Z,1011.84
2018-01-11T12:25:26.673Z,1011.82
2018-01-11T12:26:35.635Z,1011.81
2018-01-11T12:27:44.957Z,1011.79
2018-01-11T12:28:54.437Z,1011.8
2018-01-11T12:30:03.907Z,1011.83
2018-01-11T12:31:13.130Z,1011.86
2018-01-11T12:32:22.092Z,1011.85
2018-01-11T12:33:31.037Z,1011.84
2018-01-11T12:34:39.994Z,1011.82
2018-01-11T12:35:49.217Z,1011.88
2018-01-11T12:36:58.440Z,1011.9
2018-01-11T12:38:07.945Z,1011.87
2018-01-11T12:39:16.895Z,1011.92
2018-01-11T12:40:26.359Z,1011.93
2018-01-11T12:41:35.851Z,1011.95
2018-01-11T12:42:44.805Z,1011.92
2018-01-11T12:43:53.507Z,1011.92
2018-01-11T12:45:03.281Z,1011.9
2018-01-11T12:46:12.255Z,1011.94
2018-01-11T12:47:21.802Z,1011.91
2018-01-11T12:48:30.762Z,1011.91
2018-01-11T12:49:40.076Z,1011.93
2018-01-11T12:50:49.055Z,1011.94
2018-01-11T12:51:58.536Z,1011.98
2018-01-11T12:53:08.298Z,1011.95
2018-01-11T12:54:17.023Z,1011.91
2018-01-11T12:55:26.758Z,1011.94
2018-01-11T12:56:35.693Z,1011.93
2018-01-11T12:57:44.678Z,1011.97
2018-01-11T12:58:53.898Z,1011.96
2018-01-11T13:00:03.108Z,1012.04
2018-01-11T13:01:12.309Z,1012.02
2018-01-11T13:02:21.332Z,1012.04
2018-01-11T13:03:30.290Z,1012.03
2018-01-11T13:04:39.759Z,1012.11
2018-01-11T13:05:48.712Z,1012.07
2018-01-11T13:06:57.944Z,1012.08
2018-01-11T13:08:06.657Z,1012.13
2018-01-11T13:09:15.872Z,1012.17
2018-01-11T13:10:24.825Z,1012.11
2018-01-11T13:11:34.067Z,1012.13
2018-01-11T13:12:43.032Z,1012.17
2018-01-11T13:13:52.025Z,1012.15
2018-01-11T13:15:01.260Z,1012.19
2018-01-11T13:16:10.521Z,1012.19
2018-01-11T13:17:19.814Z,1012.21
2018-01-11T13:18:29.290Z,1012.18
2018-01-11T13:19:38.503Z,1012.22
2018-01-11T13:20:47.530Z,1012.24
2018-01-11T13:21:57.049Z,1012.24
2018-01-11T13:23:06.074Z,1012.25
2018-01-11T13:24:15.828Z,1012.3
2018-01-11T13:25:24.794Z,1012.3
2018-01-11T13:26:34.275Z,1012.33
2018-01-11T13:27:43.252Z,1012.31
2018-01-11T13:28:51.983Z,1012.34
2018-01-11T13:30:01.235Z,1012.37
2018-01-11T13:31:10.739Z,1012.39
2018-01-11T13:32:19.719Z,1012.43
2018-01-11T13:33:28.933Z,1012.46
2018-01-11T13:34:38.408Z,1012.5
2018-01-11T13:35:47.391Z,1012.48
2018-01-11T13:36:56.388Z,1012.53
2018-01-11T13:38:05.341Z,1012.5
2018-01-11T13:39:14.319Z,1012.55
2018-01-11T13:40:23.002Z,1012.55
2018-01-11T13:41:32.227Z,1012.56
2018-01-11T13:42:41.445Z,1012.59
2018-01-11T13:43:50.153Z,1012.66
2018-01-11T13:44:59.103Z,1012.64
2018-01-11T13:46:08.593Z,1012.65
2018-01-11T13:47:17.824Z,1012.69
2018-01-11T13:48:27.049Z,1012.67
2018-01-11T13:49:36.534Z,1012.67
2018-01-11T13:50:46.052Z,1012.7
2018-01-11T13:51:54.995Z,1012.75
2018-01-11T13:53:04.513Z,1012.75
2018-01-11T13:54:13.195Z,1012.74
2018-01-11T13:55:22.178Z,1012.77
2018-01-11T13:56:31.139Z,1012.78
2018-01-11T13:57:40.111Z,1012.79
2018-01-11T13:58:49.657Z,1012.82
2018-01-11T13:59:58.881Z,1012.84